Terminal Aerodrome Forecast
Issued by NWS

Home | Current Version | Previous Version | Text Only | Print | Product List | Glossary On
Versions: 1 2 3 4 5 6 7 8 9 10 11 12 13 14 15 16 17 18
000
FTUS41 KBGM 011733
TAFELM
TAF
KELM 011733Z 0118/0218 31010G15KT P6SM SCT060
     FM020000 22004KT P6SM SCT100
     FM020600 VRB03KT 3SM BR SKC
      TEMPO 0208/0212 1SM BR SCT004
     FM021500 25010KT P6SM SCT060=

USA.gov is the U.S. government's official web portal to all federal, state and local government web resources and services.